sensor_id;sensor_type;location;lat;lon;timestamp;P1;durP1;ratioP1;P2;durP2;ratioP2
56242;SDS011;42155;53.096;23.226;2024-03-29T00:00:42;15.35;;;7.60;;
56242;SDS011;42155;53.096;23.226;2024-03-29T00:02:42;10.50;;;6.82;;
56242;SDS011;42155;53.096;23.226;2024-03-29T00:04:42;11.23;;;7.88;;
56242;SDS011;42155;53.096;23.226;2024-03-29T00:06:43;12.77;;;8.00;;
56242;SDS011;42155;53.096;23.226;2024-03-29T00:08:43;13.82;;;7.63;;
56242;SDS011;42155;53.096;23.226;2024-03-29T00:10:46;12.68;;;7.72;;
56242;SDS011;42155;53.096;23.226;2024-03-29T00:12:47;11.55;;;7.93;;
56242;SDS011;42155;53.096;23.226;2024-03-29T00:14:47;10.02;;;6.95;;
56242;SDS011;42155;53.096;23.226;2024-03-29T00:16:47;23.70;;;8.75;;
56242;SDS011;42155;53.096;23.226;2024-03-29T00:18:48;15.27;;;8.63;;
56242;SDS011;42155;53.096;23.226;2024-03-29T00:20:48;12.65;;;7.40;;
56242;SDS011;42155;53.096;23.226;2024-03-29T00:22:49;14.05;;;8.00;;
56242;SDS011;42155;53.096;23.226;2024-03-29T00:24:49;13.80;;;8.18;;
56242;SDS011;42155;53.096;23.226;2024-03-29T00:26:49;11.13;;;7.28;;
56242;SDS011;42155;53.096;23.226;2024-03-29T00:28:50;13.60;;;7.55;;
56242;SDS011;42155;53.096;23.226;2024-03-29T00:30:50;9.70;;;7.05;;
56242;SDS011;42155;53.096;23.226;2024-03-29T00:32:51;11.52;;;7.30;;
56242;SDS011;42155;53.096;23.226;2024-03-29T00:34:51;11.10;;;7.30;;
56242;SDS011;42155;53.096;23.226;2024-03-29T00:36:52;11.07;;;7.57;;
56242;SDS011;42155;53.096;23.226;2024-03-29T00:38:53;12.20;;;8.25;;
56242;SDS011;42155;53.096;23.226;2024-03-29T00:40:53;12.10;;;6.70;;
56242;SDS011;42155;53.096;23.226;2024-03-29T00:42:53;12.75;;;7.60;;
56242;SDS011;42155;53.096;23.226;2024-03-29T00:44:54;12.60;;;7.75;;
56242;SDS011;42155;53.096;23.226;2024-03-29T00:46:54;13.30;;;8.65;;
56242;SDS011;42155;53.096;23.226;2024-03-29T00:48:54;11.73;;;7.35;;
56242;SDS011;42155;53.096;23.226;2024-03-29T00:50:55;12.52;;;7.18;;
56242;SDS011;42155;53.096;23.226;2024-03-29T00:52:55;11.10;;;6.97;;
56242;SDS011;42155;53.096;23.226;2024-03-29T00:54:55;11.38;;;7.15;;
56242;SDS011;42155;53.096;23.226;2024-03-29T00:56:56;10.32;;;6.53;;
56242;SDS011;42155;53.096;23.226;2024-03-29T00:58:56;12.45;;;8.13;;
56242;SDS011;42155;53.096;23.226;2024-03-29T01:00:57;10.32;;;6.63;;
56242;SDS011;42155;53.096;23.226;2024-03-29T01:02:57;11.75;;;7.18;;
56242;SDS011;42155;53.096;23.226;2024-03-29T01:04:57;10.77;;;7.55;;
56242;SDS011;42155;53.096;23.226;2024-03-29T01:06:58;9.88;;;6.30;;
56242;SDS011;42155;53.096;23.226;2024-03-29T01:08:58;13.35;;;7.43;;
56242;SDS011;42155;53.096;23.226;2024-03-29T01:10:59;10.90;;;6.80;;
56242;SDS011;42155;53.096;23.226;2024-03-29T01:13:00;10.05;;;6.53;;
56242;SDS011;42155;53.096;23.226;2024-03-29T01:15:00;13.80;;;7.57;;
56242;SDS011;42155;53.096;23.226;2024-03-29T01:17:01;11.02;;;7.07;;
56242;SDS011;42155;53.096;23.226;2024-03-29T01:19:02;10.30;;;6.65;;
56242;SDS011;42155;53.096;23.226;2024-03-29T01:21:02;11.15;;;7.32;;
56242;SDS011;42155;53.096;23.226;2024-03-29T01:23:03;14.57;;;7.53;;
56242;SDS011;42155;53.096;23.226;2024-03-29T01:25:03;11.82;;;6.88;;
56242;SDS011;42155;53.096;23.226;2024-03-29T01:27:04;12.23;;;6.60;;
56242;SDS011;42155;53.096;23.226;2024-03-29T01:29:04;10.48;;;7.07;;
56242;SDS011;42155;53.096;23.226;2024-03-29T01:31:05;10.45;;;6.50;;
56242;SDS011;42155;53.096;23.226;2024-03-29T01:33:05;13.77;;;6.82;;
56242;SDS011;42155;53.096;23.226;2024-03-29T01:35:06;13.85;;;7.82;;
56242;SDS011;42155;53.096;23.226;2024-03-29T01:37:06;11.00;;;7.50;;
56242;SDS011;42155;53.096;23.226;2024-03-29T01:39:07;10.65;;;7.28;;
56242;SDS011;42155;53.096;23.226;2024-03-29T01:41:07;12.48;;;7.13;;
56242;SDS011;42155;53.096;23.226;2024-03-29T01:43:07;11.85;;;7.57;;
56242;SDS011;42155;53.096;23.226;2024-03-29T01:45:08;11.15;;;7.25;;
56242;SDS011;42155;53.096;23.226;2024-03-29T01:47:09;15.30;;;8.07;;
56242;SDS011;42155;53.096;23.226;2024-03-29T01:49:09;14.50;;;6.85;;
56242;SDS011;42155;53.096;23.226;2024-03-29T01:51:10;15.10;;;7.78;;
56242;SDS011;42155;53.096;23.226;2024-03-29T01:53:11;11.88;;;7.75;;
56242;SDS011;42155;53.096;23.226;2024-03-29T01:55:13;12.05;;;7.10;;
56242;SDS011;42155;53.096;23.226;2024-03-29T01:57:13;12.88;;;7.22;;
56242;SDS011;42155;53.096;23.226;2024-03-29T01:59:16;16.45;;;8.55;;
56242;SDS011;42155;53.096;23.226;2024-03-29T02:01:17;13.43;;;7.80;;
56242;SDS011;42155;53.096;23.226;2024-03-29T02:03:19;11.25;;;7.40;;
56242;SDS011;42155;53.096;23.226;2024-03-29T02:05:19;11.88;;;7.90;;
56242;SDS011;42155;53.096;23.226;2024-03-29T02:07:20;13.40;;;7.35;;
56242;SDS011;42155;53.096;23.226;2024-03-29T02:09:20;11.45;;;7.57;;
56242;SDS011;42155;53.096;23.226;2024-03-29T02:11:21;12.25;;;8.05;;
56242;SDS011;42155;53.096;23.226;2024-03-29T02:13:21;14.00;;;8.80;;
56242;SDS011;42155;53.096;23.226;2024-03-29T02:15:22;12.45;;;8.23;;
56242;SDS011;42155;53.096;23.226;2024-03-29T02:17:22;12.30;;;7.70;;
56242;SDS011;42155;53.096;23.226;2024-03-29T02:19:22;13.18;;;8.68;;
56242;SDS011;42155;53.096;23.226;2024-03-29T02:21:23;12.93;;;7.45;;
56242;SDS011;42155;53.096;23.226;2024-03-29T02:23:26;12.43;;;7.97;;
56242;SDS011;42155;53.096;23.226;2024-03-29T02:25:29;11.10;;;7.90;;
56242;SDS011;42155;53.096;23.226;2024-03-29T02:27:29;15.85;;;8.70;;
56242;SDS011;42155;53.096;23.226;2024-03-29T02:29:30;14.48;;;8.57;;
56242;SDS011;42155;53.096;23.226;2024-03-29T02:31:30;12.88;;;8.10;;
56242;SDS011;42155;53.096;23.226;2024-03-29T02:33:31;13.23;;;8.35;;
56242;SDS011;42155;53.096;23.226;2024-03-29T02:35:31;15.15;;;9.43;;
56242;SDS011;42155;53.096;23.226;2024-03-29T02:37:31;14.45;;;8.95;;
56242;SDS011;42155;53.096;23.226;2024-03-29T02:39:32;14.43;;;8.40;;
56242;SDS011;42155;53.096;23.226;2024-03-29T02:41:32;17.55;;;9.18;;
56242;SDS011;42155;53.096;23.226;2024-03-29T02:43:33;11.38;;;7.90;;
56242;SDS011;42155;53.096;23.226;2024-03-29T02:45:33;17.50;;;9.20;;
56242;SDS011;42155;53.096;23.226;2024-03-29T02:47:33;15.40;;;9.05;;
56242;SDS011;42155;53.096;23.226;2024-03-29T02:49:34;15.70;;;8.75;;
56242;SDS011;42155;53.096;23.226;2024-03-29T02:51:34;15.88;;;9.90;;
56242;SDS011;42155;53.096;23.226;2024-03-29T02:53:35;14.05;;;9.25;;
56242;SDS011;42155;53.096;23.226;2024-03-29T02:55:35;15.23;;;9.32;;
56242;SDS011;42155;53.096;23.226;2024-03-29T02:57:36;14.82;;;8.57;;
56242;SDS011;42155;53.096;23.226;2024-03-29T02:59:39;14.20;;;8.73;;
56242;SDS011;42155;53.096;23.226;2024-03-29T03:01:40;13.88;;;8.95;;
56242;SDS011;42155;53.096;23.226;2024-03-29T03:03:40;17.10;;;9.23;;
56242;SDS011;42155;53.096;23.226;2024-03-29T03:05:40;14.75;;;9.02;;
56242;SDS011;42155;53.096;23.226;2024-03-29T03:07:41;15.52;;;9.48;;
56242;SDS011;42155;53.096;23.226;2024-03-29T03:09:41;17.88;;;9.55;;
56242;SDS011;42155;53.096;23.226;2024-03-29T03:11:41;13.25;;;8.70;;
56242;SDS011;42155;53.096;23.226;2024-03-29T03:13:42;16.02;;;9.07;;
56242;SDS011;42155;53.096;23.226;2024-03-29T03:15:42;16.05;;;9.18;;
56242;SDS011;42155;53.096;23.226;2024-03-29T03:17:43;15.32;;;8.70;;
56242;SDS011;42155;53.096;23.226;2024-03-29T03:19:43;17.45;;;9.02;;
56242;SDS011;42155;53.096;23.226;2024-03-29T03:21:43;15.73;;;9.38;;
56242;SDS011;42155;53.096;23.226;2024-03-29T03:23:44;14.15;;;8.70;;
56242;SDS011;42155;53.096;23.226;2024-03-29T03:25:44;14.63;;;8.98;;
56242;SDS011;42155;53.096;23.226;2024-03-29T03:27:46;14.10;;;9.60;;
56242;SDS011;42155;53.096;23.226;2024-03-29T03:29:47;17.17;;;9.65;;
56242;SDS011;42155;53.096;23.226;2024-03-29T03:31:47;14.23;;;8.65;;
56242;SDS011;42155;53.096;23.226;2024-03-29T03:33:47;16.08;;;9.48;;
56242;SDS011;42155;53.096;23.226;2024-03-29T03:35:48;15.00;;;9.63;;
56242;SDS011;42155;53.096;23.226;2024-03-29T03:37:48;13.95;;;8.75;;
56242;SDS011;42155;53.096;23.226;2024-03-29T03:39:49;18.58;;;9.85;;
56242;SDS011;42155;53.096;23.226;2024-03-29T03:41:49;17.75;;;9.82;;
56242;SDS011;42155;53.096;23.226;2024-03-29T03:43:49;18.10;;;9.10;;
56242;SDS011;42155;53.096;23.226;2024-03-29T03:45:50;13.88;;;8.77;;
56242;SDS011;42155;53.096;23.226;2024-03-29T03:47:50;15.80;;;9.30;;
56242;SDS011;42155;53.096;23.226;2024-03-29T03:49:50;14.20;;;8.93;;
56242;SDS011;42155;53.096;23.226;2024-03-29T03:51:51;16.55;;;9.85;;
56242;SDS011;42155;53.096;23.226;2024-03-29T03:53:51;18.92;;;9.13;;
56242;SDS011;42155;53.096;23.226;2024-03-29T03:55:52;16.75;;;9.82;;
56242;SDS011;42155;53.096;23.226;2024-03-29T03:57:52;14.10;;;9.00;;
56242;SDS011;42155;53.096;23.226;2024-03-29T03:59:53;14.70;;;9.05;;
56242;SDS011;42155;53.096;23.226;2024-03-29T04:01:53;16.58;;;9.05;;
56242;SDS011;42155;53.096;23.226;2024-03-29T04:03:54;13.93;;;8.38;;
56242;SDS011;42155;53.096;23.226;2024-03-29T04:05:54;15.20;;;8.85;;
56242;SDS011;42155;53.096;23.226;2024-03-29T04:07:54;15.02;;;9.43;;
56242;SDS011;42155;53.096;23.226;2024-03-29T04:09:55;15.38;;;9.02;;
56242;SDS011;42155;53.096;23.226;2024-03-29T04:11:55;16.98;;;8.95;;
56242;SDS011;42155;53.096;23.226;2024-03-29T04:13:55;13.73;;;9.02;;
56242;SDS011;42155;53.096;23.226;2024-03-29T04:16:02;14.98;;;9.00;;
56242;SDS011;42155;53.096;23.226;2024-03-29T04:18:03;14.65;;;9.30;;
56242;SDS011;42155;53.096;23.226;2024-03-29T04:20:04;18.13;;;9.52;;
56242;SDS011;42155;53.096;23.226;2024-03-29T04:22:05;13.98;;;9.13;;
56242;SDS011;42155;53.096;23.226;2024-03-29T04:24:05;13.88;;;8.65;;
56242;SDS011;42155;53.096;23.226;2024-03-29T04:26:06;17.83;;;9.30;;
56242;SDS011;42155;53.096;23.226;2024-03-29T04:28:06;16.35;;;9.40;;
56242;SDS011;42155;53.096;23.226;2024-03-29T04:30:06;16.55;;;9.52;;
56242;SDS011;42155;53.096;23.226;2024-03-29T04:32:07;16.05;;;9.30;;
56242;SDS011;42155;53.096;23.226;2024-03-29T04:34:08;15.20;;;10.00;;
56242;SDS011;42155;53.096;23.226;2024-03-29T04:36:09;16.92;;;10.30;;
56242;SDS011;42155;53.096;23.226;2024-03-29T04:38:09;15.63;;;9.10;;
56242;SDS011;42155;53.096;23.226;2024-03-29T04:40:10;16.00;;;9.63;;
56242;SDS011;42155;53.096;23.226;2024-03-29T04:42:11;15.27;;;9.40;;
56242;SDS011;42155;53.096;23.226;2024-03-29T04:44:12;15.90;;;9.40;;
56242;SDS011;42155;53.096;23.226;2024-03-29T04:46:13;15.85;;;9.77;;
56242;SDS011;42155;53.096;23.226;2024-03-29T04:48:14;16.02;;;9.82;;
56242;SDS011;42155;53.096;23.226;2024-03-29T04:50:15;16.60;;;9.95;;
56242;SDS011;42155;53.096;23.226;2024-03-29T04:52:15;14.25;;;9.23;;
56242;SDS011;42155;53.096;23.226;2024-03-29T04:54:16;12.82;;;8.57;;
56242;SDS011;42155;53.096;23.226;2024-03-29T04:56:17;14.77;;;9.05;;
56242;SDS011;42155;53.096;23.226;2024-03-29T04:58:17;15.18;;;8.63;;
56242;SDS011;42155;53.096;23.226;2024-03-29T05:00:18;12.73;;;8.65;;
56242;SDS011;42155;53.096;23.226;2024-03-29T05:02:18;17.25;;;8.80;;
56242;SDS011;42155;53.096;23.226;2024-03-29T05:04:19;15.30;;;8.90;;
56242;SDS011;42155;53.096;23.226;2024-03-29T05:06:20;15.40;;;9.43;;
56242;SDS011;42155;53.096;23.226;2024-03-29T05:08:20;16.13;;;8.52;;
56242;SDS011;42155;53.096;23.226;2024-03-29T05:10:20;14.48;;;8.27;;
56242;SDS011;42155;53.096;23.226;2024-03-29T05:12:21;13.13;;;7.53;;
56242;SDS011;42155;53.096;23.226;2024-03-29T05:14:21;14.23;;;8.38;;
56242;SDS011;42155;53.096;23.226;2024-03-29T05:16:22;13.52;;;7.88;;
56242;SDS011;42155;53.096;23.226;2024-03-29T05:18:22;12.88;;;7.95;;
56242;SDS011;42155;53.096;23.226;2024-03-29T05:20:22;13.52;;;8.38;;
56242;SDS011;42155;53.096;23.226;2024-03-29T05:22:23;12.95;;;7.90;;
56242;SDS011;42155;53.096;23.226;2024-03-29T05:24:23;13.35;;;8.07;;
56242;SDS011;42155;53.096;23.226;2024-03-29T05:26:23;15.05;;;8.50;;
56242;SDS011;42155;53.096;23.226;2024-03-29T05:28:24;16.08;;;9.25;;
56242;SDS011;42155;53.096;23.226;2024-03-29T05:30:24;16.38;;;8.38;;
56242;SDS011;42155;53.096;23.226;2024-03-29T05:32:24;14.73;;;7.82;;
56242;SDS011;42155;53.096;23.226;2024-03-29T05:34:25;12.23;;;8.55;;
56242;SDS011;42155;53.096;23.226;2024-03-29T05:36:25;14.15;;;8.32;;
56242;SDS011;42155;53.096;23.226;2024-03-29T05:38:26;11.70;;;8.07;;
56242;SDS011;42155;53.096;23.226;2024-03-29T05:40:26;12.55;;;7.75;;
56242;SDS011;42155;53.096;23.226;2024-03-29T05:42:26;14.25;;;7.82;;
56242;SDS011;42155;53.096;23.226;2024-03-29T05:44:27;11.77;;;7.18;;
56242;SDS011;42155;53.096;23.226;2024-03-29T05:46:27;14.52;;;7.07;;
56242;SDS011;42155;53.096;23.226;2024-03-29T05:48:28;11.82;;;6.50;;
56242;SDS011;42155;53.096;23.226;2024-03-29T05:50:29;10.82;;;6.40;;
56242;SDS011;42155;53.096;23.226;2024-03-29T05:52:29;10.75;;;6.40;;
56242;SDS011;42155;53.096;23.226;2024-03-29T05:54:29;9.60;;;6.38;;
56242;SDS011;42155;53.096;23.226;2024-03-29T05:56:30;10.70;;;6.25;;
56242;SDS011;42155;53.096;23.226;2024-03-29T05:58:30;10.50;;;5.97;;
56242;SDS011;42155;53.096;23.226;2024-03-29T06:00:31;10.70;;;6.65;;
56242;SDS011;42155;53.096;23.226;2024-03-29T06:02:32;12.50;;;6.45;;
56242;SDS011;42155;53.096;23.226;2024-03-29T06:04:32;11.85;;;6.47;;
56242;SDS011;42155;53.096;23.226;2024-03-29T06:06:33;11.70;;;6.28;;
56242;SDS011;42155;53.096;23.226;2024-03-29T06:08:33;10.63;;;5.88;;
56242;SDS011;42155;53.096;23.226;2024-03-29T06:10:33;10.07;;;5.70;;
56242;SDS011;42155;53.096;23.226;2024-03-29T06:12:34;10.00;;;5.82;;
56242;SDS011;42155;53.096;23.226;2024-03-29T06:14:34;12.48;;;7.30;;
56242;SDS011;42155;53.096;23.226;2024-03-29T06:16:35;11.68;;;5.57;;
56242;SDS011;42155;53.096;23.226;2024-03-29T06:18:35;11.00;;;5.93;;
56242;SDS011;42155;53.096;23.226;2024-03-29T06:20:35;10.50;;;5.85;;
56242;SDS011;42155;53.096;23.226;2024-03-29T06:22:36;9.93;;;5.07;;
56242;SDS011;42155;53.096;23.226;2024-03-29T06:24:36;8.38;;;5.07;;
56242;SDS011;42155;53.096;23.226;2024-03-29T06:26:36;8.57;;;4.90;;
56242;SDS011;42155;53.096;23.226;2024-03-29T06:28:37;9.23;;;4.97;;
56242;SDS011;42155;53.096;23.226;2024-03-29T06:30:37;8.50;;;4.85;;
56242;SDS011;42155;53.096;23.226;2024-03-29T06:32:37;9.15;;;5.38;;
56242;SDS011;42155;53.096;23.226;2024-03-29T06:34:39;9.75;;;5.60;;
56242;SDS011;42155;53.096;23.226;2024-03-29T06:36:39;10.57;;;5.10;;
56242;SDS011;42155;53.096;23.226;2024-03-29T06:38:40;8.50;;;4.80;;
56242;SDS011;42155;53.096;23.226;2024-03-29T06:40:40;8.93;;;4.78;;
56242;SDS011;42155;53.096;23.226;2024-03-29T06:42:40;7.88;;;4.60;;
56242;SDS011;42155;53.096;23.226;2024-03-29T06:44:41;7.95;;;4.55;;
56242;SDS011;42155;53.096;23.226;2024-03-29T06:46:41;8.02;;;4.38;;
56242;SDS011;42155;53.096;23.226;2024-03-29T06:48:42;6.97;;;3.97;;
56242;SDS011;42155;53.096;23.226;2024-03-29T06:50:42;8.07;;;4.13;;
56242;SDS011;42155;53.096;23.226;2024-03-29T06:52:43;9.93;;;4.75;;
56242;SDS011;42155;53.096;23.226;2024-03-29T06:54:43;7.70;;;4.38;;
56242;SDS011;42155;53.096;23.226;2024-03-29T06:56:43;7.90;;;4.95;;
56242;SDS011;42155;53.096;23.226;2024-03-29T06:58:44;11.07;;;5.07;;
56242;SDS011;42155;53.096;23.226;2024-03-29T07:00:46;10.38;;;5.85;;
56242;SDS011;42155;53.096;23.226;2024-03-29T07:02:46;9.13;;;4.88;;
56242;SDS011;42155;53.096;23.226;2024-03-29T07:04:47;8.13;;;4.40;;
56242;SDS011;42155;53.096;23.226;2024-03-29T07:06:47;7.85;;;4.75;;
56242;SDS011;42155;53.096;23.226;2024-03-29T07:08:48;8.55;;;4.45;;
56242;SDS011;42155;53.096;23.226;2024-03-29T07:10:56;9.93;;;4.97;;
56242;SDS011;42155;53.096;23.226;2024-03-29T07:12:57;9.63;;;4.95;;
56242;SDS011;42155;53.096;23.226;2024-03-29T07:14:58;7.03;;;4.60;;
56242;SDS011;42155;53.096;23.226;2024-03-29T07:16:58;8.15;;;4.65;;
56242;SDS011;42155;53.096;23.226;2024-03-29T07:18:58;11.05;;;4.85;;
56242;SDS011;42155;53.096;23.226;2024-03-29T07:20:59;9.48;;;5.10;;
56242;SDS011;42155;53.096;23.226;2024-03-29T07:22:59;8.15;;;3.90;;
56242;SDS011;42155;53.096;23.226;2024-03-29T07:24:59;8.45;;;4.20;;
56242;SDS011;42155;53.096;23.226;2024-03-29T07:27:00;6.07;;;4.00;;
56242;SDS011;42155;53.096;23.226;2024-03-29T07:29:00;9.85;;;4.32;;
56242;SDS011;42155;53.096;23.226;2024-03-29T07:31:06;6.88;;;4.05;;
56242;SDS011;42155;53.096;23.226;2024-03-29T07:33:07;6.53;;;4.03;;
56242;SDS011;42155;53.096;23.226;2024-03-29T07:35:07;7.18;;;3.83;;
56242;SDS011;42155;53.096;23.226;2024-03-29T07:37:08;6.32;;;3.72;;
56242;SDS011;42155;53.096;23.226;2024-03-29T07:39:08;10.07;;;4.03;;
56242;SDS011;42155;53.096;23.226;2024-03-29T07:41:09;6.53;;;4.25;;
56242;SDS011;42155;53.096;23.226;2024-03-29T07:43:10;6.40;;;3.72;;
56242;SDS011;42155;53.096;23.226;2024-03-29T07:45:10;10.70;;;3.47;;
56242;SDS011;42155;53.096;23.226;2024-03-29T07:47:10;6.43;;;3.13;;
56242;SDS011;42155;53.096;23.226;2024-03-29T07:49:11;6.45;;;3.20;;
56242;SDS011;42155;53.096;23.226;2024-03-29T07:51:11;5.88;;;3.28;;
56242;SDS011;42155;53.096;23.226;2024-03-29T07:53:12;5.28;;;3.35;;
56242;SDS011;42155;53.096;23.226;2024-03-29T07:55:12;6.95;;;3.10;;
56242;SDS011;42155;53.096;23.226;2024-03-29T07:57:13;6.88;;;3.40;;
56242;SDS011;42155;53.096;23.226;2024-03-29T07:59:13;6.22;;;3.30;;
56242;SDS011;42155;53.096;23.226;2024-03-29T08:01:23;6.32;;;3.17;;
56242;SDS011;42155;53.096;23.226;2024-03-29T08:03:23;4.87;;;3.17;;
56242;SDS011;42155;53.096;23.226;2024-03-29T08:05:24;4.35;;;2.65;;
56242;SDS011;42155;53.096;23.226;2024-03-29T08:07:24;4.10;;;2.70;;
56242;SDS011;42155;53.096;23.226;2024-03-29T08:09:25;6.50;;;2.60;;
56242;SDS011;42155;53.096;23.226;2024-03-29T08:11:25;8.10;;;3.38;;
56242;SDS011;42155;53.096;23.226;2024-03-29T08:13:26;5.45;;;2.78;;
56242;SDS011;42155;53.096;23.226;2024-03-29T08:15:26;4.78;;;2.50;;
56242;SDS011;42155;53.096;23.226;2024-03-29T08:17:27;9.88;;;2.70;;
56242;SDS011;42155;53.096;23.226;2024-03-29T08:19:27;4.38;;;2.60;;
56242;SDS011;42155;53.096;23.226;2024-03-29T08:21:28;7.10;;;2.70;;
56242;SDS011;42155;53.096;23.226;2024-03-29T08:23:28;4.70;;;2.50;;
56242;SDS011;42155;53.096;23.226;2024-03-29T08:25:29;4.93;;;2.55;;
56242;SDS011;42155;53.096;23.226;2024-03-29T08:27:29;5.65;;;2.45;;
56242;SDS011;42155;53.096;23.226;2024-03-29T08:29:30;5.13;;;2.30;;
56242;SDS011;42155;53.096;23.226;2024-03-29T08:31:30;4.72;;;2.40;;
56242;SDS011;42155;53.096;23.226;2024-03-29T08:33:31;4.60;;;2.35;;
56242;SDS011;42155;53.096;23.226;2024-03-29T08:35:32;5.38;;;2.60;;
56242;SDS011;42155;53.096;23.226;2024-03-29T08:37:33;3.95;;;2.38;;
56242;SDS011;42155;53.096;23.226;2024-03-29T08:39:33;3.80;;;2.47;;
56242;SDS011;42155;53.096;23.226;2024-03-29T08:41:35;4.25;;;2.22;;
56242;SDS011;42155;53.096;23.226;2024-03-29T08:43:35;5.07;;;2.45;;
56242;SDS011;42155;53.096;23.226;2024-03-29T08:45:35;4.88;;;2.28;;
56242;SDS011;42155;53.096;23.226;2024-03-29T08:47:36;4.30;;;2.35;;
56242;SDS011;42155;53.096;23.226;2024-03-29T08:49:36;4.40;;;2.28;;
56242;SDS011;42155;53.096;23.226;2024-03-29T08:51:36;5.55;;;2.40;;
56242;SDS011;42155;53.096;23.226;2024-03-29T08:53:37;3.28;;;1.73;;
56242;SDS011;42155;53.096;23.226;2024-03-29T08:55:37;4.18;;;2.22;;
56242;SDS011;42155;53.096;23.226;2024-03-29T08:57:38;4.60;;;2.30;;
56242;SDS011;42155;53.096;23.226;2024-03-29T08:59:38;4.05;;;2.20;;
56242;SDS011;42155;53.096;23.226;2024-03-29T09:01:41;3.70;;;2.13;;
56242;SDS011;42155;53.096;23.226;2024-03-29T09:03:42;4.13;;;2.10;;
56242;SDS011;42155;53.096;23.226;2024-03-29T09:05:42;4.47;;;2.25;;
56242;SDS011;42155;53.096;23.226;2024-03-29T09:07:43;5.50;;;2.53;;
56242;SDS011;42155;53.096;23.226;2024-03-29T09:09:43;7.20;;;2.30;;
56242;SDS011;42155;53.096;23.226;2024-03-29T09:11:44;3.28;;;2.10;;
56242;SDS011;42155;53.096;23.226;2024-03-29T09:13:44;5.07;;;2.15;;
56242;SDS011;42155;53.096;23.226;2024-03-29T09:15:44;5.47;;;2.03;;
56242;SDS011;42155;53.096;23.226;2024-03-29T09:17:48;4.25;;;2.17;;
56242;SDS011;42155;53.096;23.226;2024-03-29T09:19:51;2.28;;;1.77;;
56242;SDS011;42155;53.096;23.226;2024-03-29T09:21:52;2.92;;;1.90;;
56242;SDS011;42155;53.096;23.226;2024-03-29T09:23:52;4.18;;;2.25;;
56242;SDS011;42155;53.096;23.226;2024-03-29T09:25:52;3.75;;;2.08;;
56242;SDS011;42155;53.096;23.226;2024-03-29T09:27:53;3.17;;;1.63;;
56242;SDS011;42155;53.096;23.226;2024-03-29T09:29:54;3.88;;;1.60;;
56242;SDS011;42155;53.096;23.226;2024-03-29T09:31:55;3.63;;;1.52;;
56242;SDS011;42155;53.096;23.226;2024-03-29T09:33:55;3.08;;;1.60;;
56242;SDS011;42155;53.096;23.226;2024-03-29T09:35:55;2.33;;;1.45;;
56242;SDS011;42155;53.096;23.226;2024-03-29T09:37:56;2.75;;;1.35;;
56242;SDS011;42155;53.096;23.226;2024-03-29T09:39:56;3.33;;;1.73;;
56242;SDS011;42155;53.096;23.226;2024-03-29T09:41:57;3.65;;;1.70;;
56242;SDS011;42155;53.096;23.226;2024-03-29T09:44:01;2.03;;;1.38;;
56242;SDS011;42155;53.096;23.226;2024-03-29T09:46:03;3.38;;;1.55;;
56242;SDS011;42155;53.096;23.226;2024-03-29T09:48:04;2.28;;;1.50;;
56242;SDS011;42155;53.096;23.226;2024-03-29T09:50:05;5.15;;;1.67;;
56242;SDS011;42155;53.096;23.226;2024-03-29T09:52:07;4.75;;;1.50;;
56242;SDS011;42155;53.096;23.226;2024-03-29T09:54:09;2.53;;;1.38;;
56242;SDS011;42155;53.096;23.226;2024-03-29T09:56:10;6.38;;;2.08;;
56242;SDS011;42155;53.096;23.226;2024-03-29T09:58:10;3.53;;;1.80;;
56242;SDS011;42155;53.096;23.226;2024-03-29T10:00:11;3.03;;;1.30;;
56242;SDS011;42155;53.096;23.226;2024-03-29T10:02:14;3.55;;;1.50;;
56242;SDS011;42155;53.096;23.226;2024-03-29T10:04:16;2.30;;;1.60;;
56242;SDS011;42155;53.096;23.226;2024-03-29T10:06:18;2.67;;;1.35;;
56242;SDS011;42155;53.096;23.226;2024-03-29T10:08:19;4.60;;;1.52;;
56242;SDS011;42155;53.096;23.226;2024-03-29T10:10:19;4.88;;;1.70;;
56242;SDS011;42155;53.096;23.226;2024-03-29T10:12:19;2.85;;;1.35;;
56242;SDS011;42155;53.096;23.226;2024-03-29T10:14:20;2.97;;;1.20;;
56242;SDS011;42155;53.096;23.226;2024-03-29T10:16:20;3.35;;;1.30;;
56242;SDS011;42155;53.096;23.226;2024-03-29T10:18:22;2.90;;;1.42;;
56242;SDS011;42155;53.096;23.226;2024-03-29T10:20:23;4.00;;;1.65;;
56242;SDS011;42155;53.096;23.226;2024-03-29T10:22:23;3.03;;;1.50;;
56242;SDS011;42155;53.096;23.226;2024-03-29T10:24:23;4.78;;;1.38;;
56242;SDS011;42155;53.096;23.226;2024-03-29T10:26:24;2.80;;;1.65;;
56242;SDS011;42155;53.096;23.226;2024-03-29T10:30:29;7.28;;;1.58;;
56242;SDS011;42155;53.096;23.226;2024-03-29T10:32:30;3.28;;;1.50;;
56242;SDS011;42155;53.096;23.226;2024-03-29T10:34:30;3.63;;;1.60;;
56242;SDS011;42155;53.096;23.226;2024-03-29T10:36:31;6.82;;;2.20;;
56242;SDS011;42155;53.096;23.226;2024-03-29T10:38:32;6.03;;;1.90;;
56242;SDS011;42155;53.096;23.226;2024-03-29T10:40:33;3.38;;;1.73;;
56242;SDS011;42155;53.096;23.226;2024-03-29T10:42:36;9.10;;;1.83;;
56242;SDS011;42155;53.096;23.226;2024-03-29T10:44:38;2.80;;;1.63;;
56242;SDS011;42155;53.096;23.226;2024-03-29T10:46:40;2.42;;;1.45;;
56242;SDS011;42155;53.096;23.226;2024-03-29T10:48:41;4.13;;;1.40;;
56242;SDS011;42155;53.096;23.226;2024-03-29T10:50:43;2.50;;;1.55;;
56242;SDS011;42155;53.096;23.226;2024-03-29T10:52:43;4.22;;;1.75;;
56242;SDS011;42155;53.096;23.226;2024-03-29T10:54:45;3.28;;;1.67;;
56242;SDS011;42155;53.096;23.226;2024-03-29T10:56:47;3.28;;;1.30;;
56242;SDS011;42155;53.096;23.226;2024-03-29T10:58:52;4.30;;;1.35;;
56242;SDS011;42155;53.096;23.226;2024-03-29T11:00:59;1.98;;;1.10;;
56242;SDS011;42155;53.096;23.226;2024-03-29T11:05:16;5.53;;;1.52;;
56242;SDS011;42155;53.096;23.226;2024-03-29T11:07:19;2.88;;;1.45;;
56242;SDS011;42155;53.096;23.226;2024-03-29T11:09:20;4.45;;;1.27;;
56242;SDS011;42155;53.096;23.226;2024-03-29T11:11:23;4.47;;;1.05;;
56242;SDS011;42155;53.096;23.226;2024-03-29T11:18:08;3.80;;;1.33;;
56242;SDS011;42155;53.096;23.226;2024-03-29T11:20:09;2.65;;;1.38;;
56242;SDS011;42155;53.096;23.226;2024-03-29T11:22:10;2.80;;;1.50;;
56242;SDS011;42155;53.096;23.226;2024-03-29T11:24:11;3.47;;;1.60;;
56242;SDS011;42155;53.096;23.226;2024-03-29T11:26:11;3.35;;;1.30;;
56242;SDS011;42155;53.096;23.226;2024-03-29T11:28:12;2.38;;;1.20;;
56242;SDS011;42155;53.096;23.226;2024-03-29T11:30:17;3.95;;;1.35;;
56242;SDS011;42155;53.096;23.226;2024-03-29T11:32:37;2.53;;;1.27;;
56242;SDS011;42155;53.096;23.226;2024-03-29T11:34:43;2.47;;;1.20;;
56242;SDS011;42155;53.096;23.226;2024-03-29T11:36:46;1.98;;;1.15;;
56242;SDS011;42155;53.096;23.226;2024-03-29T11:38:47;2.45;;;1.35;;
56242;SDS011;42155;53.096;23.226;2024-03-29T11:40:55;2.90;;;1.35;;
56242;SDS011;42155;53.096;23.226;2024-03-29T11:43:03;2.08;;;1.10;;
56242;SDS011;42155;53.096;23.226;2024-03-29T11:45:04;2.63;;;1.33;;
56242;SDS011;42155;53.096;23.226;2024-03-29T11:47:05;3.42;;;1.27;;
56242;SDS011;42155;53.096;23.226;2024-03-29T11:49:06;4.32;;;1.27;;
56242;SDS011;42155;53.096;23.226;2024-03-29T11:51:07;4.05;;;1.27;;
56242;SDS011;42155;53.096;23.226;2024-03-29T11:53:09;2.63;;;1.40;;
56242;SDS011;42155;53.096;23.226;2024-03-29T11:55:09;2.90;;;1.30;;
56242;SDS011;42155;53.096;23.226;2024-03-29T11:57:10;4.95;;;1.30;;
56242;SDS011;42155;53.096;23.226;2024-03-29T11:59:10;3.13;;;1.63;;
56242;SDS011;42155;53.096;23.226;2024-03-29T12:01:10;3.42;;;1.30;;